This is the latest recevied weather packets stored in our database for station/object KJ5IIV. If no packets are shown the sender has not sent any weather packets the latest 10 day(s).
| Time | Temp. | Humidity | Pressure | Rain* | Wind** | Luminosity | Snow |
|---|---|---|---|---|---|---|---|
| 1778187551 | 22.22° C | 56% | 1015.8 hPa | 0 mm | - | 474 W/m² | - |
| 1778187249 | 22.22° C | 58% | 1015.8 hPa | 0 mm | - | 411 W/m² | - |
| 1778186944 | 23.33° C | 53% | 1015.8 hPa | 0 mm | - | 569 W/m² | - |
| 1778186641 | 22.22° C | 55% | 1015.9 hPa | 0 mm | - | 520 W/m² | - |
| 1778186339 | 22.22° C | 54% | 1015.8 hPa | 0 mm | - | 551 W/m² | - |
| 1778186037 | 22.78° C | 53% | 1016.3 hPa | 0 mm | - | 527 W/m² | - |
| 1778185733 | 22.78° C | 55% | 1016 hPa | 0 mm | - | 373 W/m² | - |
| 1778185429 | 22.78° C | 54% | 1016.3 hPa | 0 mm | - | 475 W/m² | - |
| 1778185125 | 22.22° C | 55% | 1016.2 hPa | 0 mm | - | 540 W/m² | - |
| 1778184820 | 22.22° C | 56% | 1016.1 hPa | 0 mm | - | 505 W/m² | - |
| 1778184517 | 22.22° C | 53% | 1016.1 hPa | 0 mm | - | 510 W/m² | - |
| 1778184213 | 22.22° C | 53% | 1016.3 hPa | 0 mm | - | 644 W/m² | - |
| 1778183909 | 22.22° C | 54% | 1016.4 hPa | 0 mm | - | 585 W/m² | - |
| 1778183607 | 22.22° C | 52% | 1016.4 hPa | 0 mm | - | 568 W/m² | - |
| 1778183304 | 22.22° C | 54% | 1016.8 hPa | 0 mm | - | 470 W/m² | - |
| 1778183000 | 22.22° C | 54% | 1016.8 hPa | 0 mm | - | 507 W/m² | - |
| 1778182697 | 22.22° C | 53% | 1016.8 hPa | 0 mm | - | 568 W/m² | - |
| 1778182394 | 22.78° C | 53% | 1017 hPa | 0 mm | - | 487 W/m² | - |
| 1778182089 | 22.22° C | 55% | 1017.1 hPa | 0 mm | - | 546 W/m² | - |
| 1778181786 | 22.22° C | 56% | 1017.4 hPa | 0 mm | - | 624 W/m² | - |
| 1778181483 | 22.22° C | 54% | 1016.8 hPa | 0 mm | - | 475 W/m² | - |
| 1778181179 | 21.67° C | 55% | 1017 hPa | 0 mm | - | 709 W/m² | - |
| 1778180876 | 21.67° C | 55% | 1016.9 hPa | 0 mm | - | 479 W/m² | - |
| 1778180575 | 22.22° C | 56% | 1016.8 hPa | 0 mm | - | 495 W/m² | - |
| 1778180273 | 22.22° C | 56% | 1016.8 hPa | 0 mm | - | 448 W/m² | - |
* Rain latest hour (hover to see other rain measurements)
** Current wind speed in m/s (hover to see current wind gust speed)